Decoded Metar for KMRY (MONTEREY in CA, USA) (IATA:MRY) | Meteo·Mobile Aviation Weather
aviador You're here:

KMRY Decoded Metar

MONTEREY in CA, USA
Report Time2019-09-16 23:54:00
UTC Time2019-09-17 00:45:00
Flight Rules vfr VFR
Wind280° at 07 kt
W.Decomp.*RWY 28: 6.8 kt HW 1.8 kt LCW
Visibility9999 m
Phenomena:N/A
Clouds:N/A
Expected CloudBase > 4,400 ft AGL from Temp-Dew spread
CeilingNone
Temp22°C (ISA +7)
Dew Point11°C (50% RH)
AAT19.8°C
QNH1016 hPa
Density Alt1,158 ft
Elevation217 ft
Report Wrong Elevation
Raw Report
KMRY 162354Z 28007KT 10SM CLR 22/11 A2999 RMK AO2 SLP166 60000
T02170111 10222 20172 58006=

Extra information for KMRY:More info

Metar Taf Metar & Taf Last 4 Metars F.Rules Stats Wind Profile Meteogram Temp Stats Airport Information Weather charts Add Link Nearby VenuesMetar ALERT Operation Metar Decoded Social comments

AIRNAV info for KMRY